Time;durP1;ratioP1;P1;durP2;ratioP2;P2;SDS_P1;SDS_P2;PMS_P1;PMS_P2;Temp;Humidity;BMP_temperature;BMP_pressure;BME280_temperature;BME280_humidity;BME280_pressure;Samples;Min_cycle;Max_cycle;Signal;HPM_P1;HPM_P2
2023/01/22 00:01:18;;;;;;;18.33;10.60;;;-1.30;99.90;;;2.05;58.93;98305.00;5030682;28;20041;-48
2023/01/22 00:03:47;;;;;;;18.97;10.10;;;-1.30;99.90;;;2.13;59.05;98300.16;5031059;28;20041;-46
2023/01/22 00:06:16;;;;;;;17.20;9.63;;;-1.30;99.90;;;2.00;59.41;98293.94;5030959;28;20177;-47
2023/01/22 00:08:45;;;;;;;18.30;10.13;;;-1.40;99.90;;;2.02;58.82;98299.94;5031049;28;20053;-46
2023/01/22 00:11:14;;;;;;;18.67;9.67;;;-1.40;99.90;;;1.93;58.94;98293.44;5030675;28;20053;-47
2023/01/22 00:13:43;;;;;;;18.17;9.77;;;-1.40;99.90;;;2.09;59.18;98290.75;5031139;28;20519;-45
2023/01/22 00:16:16;;;;;;;20.67;9.97;;;-1.30;99.90;;;2.10;58.88;98294.25;5031036;28;20052;-48
2023/01/22 00:18:44;;;;;;;18.30;9.45;;;-1.30;99.90;;;2.05;58.72;98280.53;5029882;28;20401;-50
2023/01/22 00:21:12;;;;;;;16.90;10.73;;;-1.30;99.90;;;2.13;59.01;98287.03;5030436;28;20055;-46
2023/01/22 00:23:40;;;;;;;19.23;9.67;;;-1.30;99.90;;;2.12;59.20;98293.19;5029843;28;20050;-48
2023/01/22 00:26:14;;;;;;;24.00;11.77;;;-1.30;99.90;;;2.12;59.15;98279.22;5030805;28;20048;-48
2023/01/22 00:28:44;;;;;;;16.90;8.13;;;-1.30;99.90;;;1.95;59.63;98280.22;5030790;28;20485;-46
2023/01/22 00:31:15;;;;;;;16.60;9.37;;;-1.30;99.90;;;2.00;59.39;98280.81;5030230;28;20048;-50
2023/01/22 00:33:45;;;;;;;19.70;11.87;;;-1.40;99.90;;;2.10;58.88;98279.31;5031215;28;20473;-49
2023/01/22 00:36:19;;;;;;;17.33;9.93;;;-1.30;99.90;;;2.13;59.09;98278.28;5030267;28;20497;-49
2023/01/22 00:38:49;;;;;;;19.53;9.30;;;-1.30;99.90;;;2.08;59.31;98278.56;5029765;28;20041;-50
2023/01/22 00:41:18;;;;;;;18.03;11.23;;;-1.40;99.90;;;2.09;58.65;98276.78;5029199;28;20076;-47
2023/01/22 00:43:47;;;;;;;19.23;10.33;;;-1.30;99.90;;;1.94;59.63;98276.78;5032670;28;20041;-49
2023/01/22 00:46:17;;;;;;;17.30;9.47;;;-1.40;99.90;;;2.08;58.85;98275.94;5049718;28;20501;-48
2023/01/22 00:48:44;;;;;;;18.33;9.37;;;-1.40;99.90;;;2.09;59.26;98274.97;5034694;28;20037;-45
2023/01/22 00:51:14;;;;;;;15.63;8.20;;;-1.30;99.90;;;2.10;59.36;98283.72;5033268;28;20088;-44
2023/01/22 00:53:42;;;;;;;15.93;8.70;;;-1.30;99.90;;;2.01;59.35;98274.59;5033329;28;20432;-50
2023/01/22 00:56:13;;;;;;;17.53;9.83;;;-1.40;99.90;;;2.17;59.23;98277.16;5033339;28;20049;-45
2023/01/22 00:58:41;;;;;;;15.70;8.43;;;-1.30;99.90;;;2.23;59.21;98281.19;5033262;28;20040;-47
2023/01/22 01:01:13;;;;;;;18.90;10.97;;;-1.20;99.90;;;2.29;58.92;98281.69;5032804;28;20053;-49
2023/01/22 01:03:41;;;;;;;14.40;9.10;;;-1.20;99.90;;;2.26;58.42;98278.38;5033245;28;20385;-47
2023/01/22 01:06:19;;;;;;;17.03;10.23;;;-1.20;99.90;;;2.22;58.55;98277.72;5032940;28;20049;-48
2023/01/22 01:08:49;;;;;;;15.73;9.67;;;-1.20;99.90;;;2.22;58.91;98282.16;5033335;28;20048;-50
2023/01/22 01:11:21;;;;;;;17.10;8.90;;;-1.20;99.90;;;2.20;59.01;98276.97;5032316;28;20049;-45
2023/01/22 01:13:51;;;;;;;18.20;11.00;;;-1.30;99.90;;;2.28;58.88;98277.34;5034407;28;20045;-46
2023/01/22 01:16:25;;;;;;;16.40;9.80;;;-1.20;99.90;;;2.40;58.55;98278.38;5033323;28;20053;-49
2023/01/22 01:19:00;;;;;;;16.30;9.40;;;-1.10;99.90;;;2.22;59.14;98282.16;5033012;28;20044;-50
2023/01/22 01:21:29;;;;;;;14.80;8.87;;;-1.20;99.90;;;2.23;58.59;98282.06;5034107;28;20069;-46
2023/01/22 01:23:58;;;;;;;15.33;8.80;;;-1.20;99.90;;;2.14;59.35;98272.94;5034374;28;20048;-46
2023/01/22 01:26:27;;;;;;;17.17;8.97;;;-1.30;99.90;;;2.20;58.95;98274.34;5032971;28;20068;-46
2023/01/22 01:28:55;;;;;;;16.63;8.93;;;-1.20;99.90;;;2.03;59.39;98277.16;5033981;28;20420;-47
2023/01/22 01:31:24;;;;;;;17.60;9.07;;;-1.30;99.90;;;2.17;59.08;98280.66;5033491;28;20049;-48
2023/01/22 01:33:53;;;;;;;15.63;9.70;;;-1.30;99.90;;;2.22;59.23;98275.09;5032687;28;20052;-49
2023/01/22 01:36:23;;;;;;;17.27;9.13;;;-1.30;99.90;;;2.27;59.04;98277.44;5031412;28;20057;-45
2023/01/22 01:39:11;;;;;;;14.87;9.10;;;-1.20;99.90;;;2.33;58.70;98274.44;5017573;28;20057;-50
2023/01/22 01:41:39;;;;;;;16.57;9.10;;;-1.20;99.90;;;2.11;59.57;98267.88;5031126;28;20101;-47
2023/01/22 01:44:29;;;;;;;18.97;10.63;;;-1.30;99.90;;;2.27;59.10;98259.91;5031431;28;20380;-46
2023/01/22 01:47:04;;;;;;;16.40;9.10;;;-1.20;99.90;;;2.36;58.63;98264.59;5042840;28;20041;-49
2023/01/22 01:49:46;;;;;;;17.73;9.30;;;-1.10;99.90;;;2.40;58.94;98269.66;5030570;28;20406;-46
2023/01/22 01:52:16;;;;;;;15.47;9.53;;;-1.10;99.90;;;2.50;58.42;98265.50;5030976;28;20037;-46
2023/01/22 01:54:50;;;;;;;19.10;10.57;;;-1.00;99.90;;;2.55;58.51;98269.53;5030590;28;20052;-48
2023/01/22 01:57:25;;;;;;;17.37;10.07;;;-1.00;99.90;;;2.58;58.16;98276.41;5030648;28;20053;-48
2023/01/22 01:59:54;;;;;;;14.17;7.73;;;-0.90;99.90;;;2.44;58.90;98271.16;5030914;28;20124;-48
2023/01/22 02:02:22;;;;;;;18.37;11.07;;;-1.00;99.90;;;2.56;58.15;98273.03;5030409;28;20049;-45
2023/01/22 02:04:51;;;;;;;17.63;9.00;;;-1.00;99.90;;;2.49;59.10;98266.47;5028298;28;20045;-50
2023/01/22 02:07:19;;;;;;;14.50;9.07;;;-1.00;99.90;;;2.50;58.21;98262.88;5030555;28;20417;-47
2023/01/22 02:09:47;;;;;;;17.27;9.33;;;-1.00;99.90;;;2.41;58.90;98261.69;5030023;28;20046;-45
2023/01/22 02:12:15;;;;;;;14.93;9.03;;;-1.10;99.90;;;2.47;58.53;98263.09;5032258;28;20057;-47
2023/01/22 02:14:44;;;;;;;15.40;9.10;;;-1.10;99.90;;;2.47;58.58;98257.81;5030744;28;20048;-47
2023/01/22 02:17:14;;;;;;;23.37;10.93;;;-1.10;99.90;;;2.58;58.52;98257.16;5030568;28;20413;-49
2023/01/22 02:19:42;;;;;;;17.37;9.13;;;-1.00;99.90;;;2.62;58.04;98253.38;5029829;28;20042;-45
2023/01/22 02:22:20;;;;;;;16.03;8.93;;;-1.00;99.90;;;2.49;58.74;98258.56;5030582;28;20068;-47
2023/01/22 02:24:48;;;;;;;18.03;9.33;;;-1.00;99.90;;;2.46;58.89;98245.63;5025650;28;20374;-50
2023/01/22 02:27:18;;;;;;;17.60;10.13;;;-1.10;99.90;;;2.50;58.51;98252.38;5031310;28;20049;-47
2023/01/22 02:29:47;;;;;;;15.83;9.00;;;-1.10;99.90;;;2.48;58.56;98247.22;5038617;28;20049;-49
2023/01/22 02:32:16;;;;;;;15.30;9.37;;;-1.00;99.90;;;2.47;58.83;98256.03;5030377;28;20045;-48
2023/01/22 02:34:44;;;;;;;17.13;8.70;;;-1.00;99.90;;;2.52;58.64;98248.72;5031017;28;20393;-46
2023/01/22 02:37:12;;;;;;;14.60;8.03;;;-1.10;99.90;;;2.49;58.85;98250.69;4989097;28;1255891;-53
2023/01/22 02:39:39;;;;;;;18.40;9.80;;;-1.00;99.90;;;2.55;58.70;98251.13;5032701;28;20050;-48
2023/01/22 02:42:08;;;;;;;18.63;10.07;;;-1.10;99.90;;;2.58;58.52;98251.88;5031108;28;20169;-48
2023/01/22 02:44:37;;;;;;;17.20;9.67;;;-1.00;99.90;;;2.41;58.62;98255.59;5031796;28;20369;-49
2023/01/22 02:47:06;;;;;;;16.43;9.23;;;-1.10;99.90;;;2.51;58.61;98252.28;5031319;28;20041;-47
2023/01/22 02:49:34;;;;;;;18.83;10.97;;;-1.00;99.90;;;2.60;58.47;98253.50;5031425;28;20069;-47
2023/01/22 02:52:01;;;;;;;15.20;9.43;;;-0.90;99.90;;;2.59;58.61;98253.59;5032491;28;20059;-48
2023/01/22 02:54:30;;;;;;;16.23;10.03;;;-0.90;99.90;;;2.58;58.53;98251.88;5031206;28;20064;-49
2023/01/22 02:56:58;;;;;;;20.57;10.53;;;-1.00;99.90;;;2.66;58.39;98247.00;5039210;28;20056;-46
2023/01/22 02:59:26;;;;;;;15.50;9.80;;;-0.90;99.90;;;2.71;58.29;98247.53;5030399;28;20076;-52
2023/01/22 03:01:55;;;;;;;17.60;9.73;;;-0.90;99.90;;;2.69;58.24;98249.44;5031564;28;20046;-47
2023/01/22 03:04:26;;;;;;;15.23;8.73;;;-0.90;99.90;;;2.58;58.98;98239.59;5031141;28;20124;-49
2023/01/22 03:06:53;;;;;;;20.20;9.20;;;-0.90;99.90;;;2.47;58.57;98242.06;5029845;28;20046;-51
2023/01/22 03:09:24;;;;;;;17.07;10.43;;;-1.00;99.90;;;2.50;58.85;98240.09;5013403;28;20052;-48
2023/01/22 03:11:51;;;;;;;20.03;10.13;;;-1.00;99.90;;;2.55;58.51;98243.25;5030737;28;20061;-49
2023/01/22 03:22:48;;;;;;;20.70;11.07;;;-0.90;99.90;;;2.64;58.36;98235.75;5024152;28;20124;-46
2023/01/22 03:25:16;;;;;;;19.53;10.17;;;-0.80;99.90;;;2.64;58.84;98230.50;5031815;28;20038;-52
2023/01/22 03:30:34;;;;;;;21.40;11.03;;;-0.90;99.90;;;2.66;58.42;98244.38;5024829;28;20054;-49
2023/01/22 03:33:03;;;;;;;20.43;11.03;;;-0.90;99.90;;;2.67;58.79;98240.78;5030434;28;20045;-49
2023/01/22 03:35:31;;;;;;;21.87;10.30;;;-0.90;99.90;;;2.74;58.23;98245.56;5038820;28;20501;-46
2023/01/22 03:38:12;;;;;;;20.23;11.17;;;-0.90;99.90;;;2.72;58.67;98246.63;5030472;28;20053;-47
2023/01/22 03:40:40;;;;;;;20.20;10.10;;;-0.90;99.90;;;2.68;58.56;98242.50;5029978;28;20543;-49
2023/01/22 03:43:09;;;;;;;21.83;11.03;;;-0.90;99.90;;;2.66;58.38;98242.59;5030215;28;20054;-49
2023/01/22 03:45:38;;;;;;;19.30;11.13;;;-0.90;99.90;;;2.64;58.95;98241.84;5031616;28;20400;-46
2023/01/22 03:48:10;;;;;;;19.37;10.73;;;-1.00;99.90;;;2.67;58.84;98243.44;5030457;28;20409;-48
2023/01/22 03:50:40;;;;;;;19.93;10.87;;;-0.90;99.90;;;2.74;58.25;98242.09;5037610;28;20045;-46
2023/01/22 03:53:08;;;;;;;19.83;10.87;;;-0.90;99.90;;;2.75;58.55;98244.66;5031595;28;20041;-49
2023/01/22 03:55:36;;;;;;;23.03;11.90;;;-0.90;99.90;;;2.83;58.15;98240.66;5030667;28;20064;-48
2023/01/22 03:58:04;;;;;;;24.40;12.03;;;-0.80;99.90;;;2.82;58.29;98242.44;5030354;28;20053;-49
2023/01/22 04:00:32;;;;;;;21.63;11.53;;;-0.80;99.90;;;2.87;58.29;98243.00;5030074;28;20057;-48
2023/01/22 04:03:03;;;;;;;21.57;12.43;;;-0.80;99.90;;;2.83;58.32;98238.91;5038485;28;20053;-47
2023/01/22 04:05:37;;;;;;;26.38;12.13;;;-0.80;99.90;;;2.83;58.20;98240.66;5031675;28;20540;-46
2023/01/22 04:08:05;;;;;;;22.40;12.00;;;-0.80;99.90;;;2.78;58.68;98237.50;5031075;28;20046;-50
2023/01/22 04:10:35;;;;;;;25.03;11.90;;;-0.90;99.90;;;2.81;58.38;98250.44;5037439;28;20497;-52
2023/01/22 04:13:03;;;;;;;21.70;12.63;;;-0.90;99.90;;;2.82;58.38;98244.25;5037824;28;20391;-48
2023/01/22 04:15:31;;;;;;;25.13;12.67;;;-0.80;99.90;;;2.80;58.49;98246.97;5029831;28;20532;-46
2023/01/22 04:18:01;;;;;;;25.57;12.67;;;-0.80;99.90;;;2.81;58.26;98246.03;5038017;28;20053;-47
2023/01/22 04:20:41;;;;;;;23.87;11.80;;;-0.80;99.90;;;2.82;58.58;98237.19;5037697;28;20049;-46
2023/01/22 04:23:20;;;;;;;24.00;11.83;;;-0.80;99.90;;;2.88;58.25;98243.84;5031009;28;20041;-49
2023/01/22 04:25:50;;;;;;;23.57;12.77;;;-0.70;99.90;;;2.89;58.10;98250.78;5031213;28;20048;-48
2023/01/22 04:28:18;;;;;;;21.23;11.30;;;-0.70;99.90;;;2.88;58.49;98242.06;5030883;28;20042;-45
2023/01/22 04:30:53;;;;;;;23.73;12.63;;;-0.80;99.90;;;2.92;57.82;98246.16;5030164;28;20085;-48
2023/01/22 04:33:50;;;;;;;26.77;13.77;;;-0.80;99.90;;;2.88;58.24;98247.31;5006715;28;20049;-49
2023/01/22 04:36:23;;;;;;;23.10;12.93;;;-0.80;99.90;;;2.77;58.63;98252.41;5037774;28;20055;-49
2023/01/22 04:38:50;;;;;;;21.97;10.73;;;-0.90;99.90;;;2.78;58.70;98245.38;5037666;28;20053;-47
2023/01/22 04:41:19;;;;;;;20.43;11.97;;;-0.90;99.90;;;2.62;58.88;98251.63;5029298;28;20527;-49
2023/01/22 04:43:47;;;;;;;23.20;12.80;;;-0.90;99.90;;;2.75;58.55;98255.16;5030004;28;20045;-47
2023/01/22 04:46:15;;;;;;;22.87;11.33;;;-0.80;99.90;;;2.82;58.45;98252.13;5037663;28;20432;-48
2023/01/22 04:48:45;;;;;;;18.90;9.63;;;-0.80;99.90;;;2.75;58.68;98255.16;5037638;28;20056;-49
2023/01/22 04:51:13;;;;;;;24.23;12.17;;;-0.90;99.90;;;2.80;58.55;98256.66;5029453;28;20046;-50
2023/01/22 04:53:41;;;;;;;23.17;11.60;;;-0.90;99.90;;;2.79;58.47;98254.94;5029906;28;20053;-48
2023/01/22 04:56:09;;;;;;;24.17;12.20;;;-0.80;99.90;;;2.82;58.88;98255.59;5037774;28;20543;-47
2023/01/22 04:58:37;;;;;;;26.60;12.53;;;-0.80;99.90;;;2.82;58.74;98262.66;5037398;28;20058;-47
2023/01/22 05:01:06;;;;;;;21.70;12.10;;;-0.80;99.90;;;2.73;58.75;98257.03;5029466;28;20050;-46
2023/01/22 05:03:34;;;;;;;20.80;11.00;;;-0.90;99.90;;;2.64;58.94;98257.63;5029600;28;20058;-45
2023/01/22 05:06:04;;;;;;;23.33;11.90;;;-0.90;99.90;;;2.63;59.16;98269.06;5034698;28;20405;-46
2023/01/22 05:08:34;;;;;;;22.60;12.80;;;-0.90;99.90;;;2.64;59.32;98270.75;5029397;28;20056;-48
2023/01/22 05:11:03;;;;;;;22.40;11.47;;;-0.90;99.90;;;2.61;59.18;98275.38;5037579;28;20401;-47
2023/01/22 05:13:51;;;;;;;22.33;11.70;;;-0.80;99.90;;;2.66;59.34;98274.13;5030726;28;20045;-48
2023/01/22 05:16:20;;;;;;;23.57;11.53;;;-0.90;99.90;;;2.63;59.15;98273.47;5029053;28;20045;-53
2023/01/22 05:18:48;;;;;;;26.07;13.13;;;-0.90;99.90;;;2.75;58.92;98270.94;5021701;28;20046;-49
2023/01/22 05:21:16;;;;;;;21.13;11.53;;;-0.80;99.90;;;2.85;58.87;98278.22;5030212;28;20504;-48
2023/01/22 05:23:43;;;;;;;24.63;11.87;;;-0.80;99.90;;;2.83;58.53;98278.34;5029214;28;20057;-51
2023/01/22 05:26:11;;;;;;;26.13;12.93;;;-0.80;99.90;;;2.87;58.74;98271.94;5037173;28;20187;-48
2023/01/22 05:28:52;;;;;;;22.33;11.60;;;-0.70;99.90;;;2.86;58.78;98275.50;5030589;28;20046;-45
2023/01/22 05:31:48;;;;;;;22.60;12.53;;;-0.80;99.90;;;2.87;58.68;98277.19;5075903;28;20424;-51
2023/01/22 05:34:27;;;;;;;24.47;12.37;;;-0.80;99.90;;;2.84;59.04;98273.91;5032948;28;20049;-46
2023/01/22 05:36:55;;;;;;;23.30;10.63;;;-0.80;99.90;;;2.60;59.16;98274.53;5040599;28;20105;-45
2023/01/22 05:39:25;;;;;;;26.47;13.77;;;-0.90;99.90;;;2.80;58.87;98273.25;5040430;28;20076;-48
2023/01/22 05:41:54;;;;;;;25.33;12.40;;;-0.80;99.90;;;2.89;58.67;98274.44;5032956;28;20065;-52
2023/01/22 05:44:25;;;;;;;22.70;11.77;;;-0.70;99.90;;;2.78;58.76;98276.94;5031968;28;20053;-49
2023/01/22 05:46:54;;;;;;;23.17;12.50;;;-0.80;99.90;;;2.86;58.81;98278.13;5024574;28;20517;-46
2023/01/22 05:49:40;;;;;;;22.30;13.33;;;-0.70;99.90;;;2.83;58.68;98272.22;5033867;28;20068;-49
2023/01/22 05:52:10;;;;;;;25.17;13.10;;;-0.80;99.90;;;2.86;58.88;98285.19;5032041;28;20045;-49
2023/01/22 05:54:40;;;;;;;23.80;11.87;;;-0.80;99.90;;;2.95;58.73;98280.19;5048932;28;20048;-48
2023/01/22 05:57:08;;;;;;;26.80;12.57;;;-0.70;99.90;;;3.01;58.27;98283.38;5032606;28;20050;-48
2023/01/22 05:59:38;;;;;;;28.77;14.70;;;-0.60;99.90;;;3.03;58.54;98292.84;5031842;28;20054;-49
2023/01/22 06:02:08;;;;;;;27.70;14.10;;;-0.60;99.90;;;3.01;58.38;98286.00;5031532;28;20056;-48
2023/01/22 06:04:41;;;;;;;24.85;13.02;;;-0.70;99.90;;;3.05;58.39;98298.00;5032620;28;20139;-47
2023/01/22 06:07:20;;;;;;;25.33;12.73;;;-0.60;99.90;;;3.07;58.44;98299.59;5040439;28;20408;-51
2023/01/22 06:09:48;;;;;;;25.57;13.10;;;-0.60;99.90;;;3.04;58.39;98302.41;5031554;28;20413;-48
2023/01/22 06:12:17;;;;;;;25.63;13.13;;;-0.70;99.90;;;3.06;58.30;98304.94;5031676;28;20086;-47
2023/01/22 06:14:46;;;;;;;24.80;13.40;;;-0.70;99.90;;;3.02;58.57;98308.72;5031880;28;20398;-47
2023/01/22 06:17:14;;;;;;;23.37;13.37;;;-0.70;99.90;;;2.97;58.57;98306.41;5040442;28;20056;-46
2023/01/22 06:20:01;;;;;;;27.70;13.30;;;-0.70;99.90;;;2.98;58.72;98317.75;5031916;28;20057;-49
2023/01/22 06:22:29;;;;;;;25.77;13.07;;;-0.70;99.90;;;3.03;58.88;98313.06;5048334;28;20052;-48
2023/01/22 06:25:00;;;;;;;23.13;12.30;;;-0.70;99.90;;;3.11;58.79;98318.66;5032174;28;20053;-48
2023/01/22 06:27:46;;;;;;;25.77;11.80;;;-0.60;99.90;;;3.22;58.33;98320.59;5040132;28;20045;-51
2023/01/22 06:30:14;;;;;;;24.93;13.13;;;-0.50;99.90;;;3.22;58.46;98317.97;5032984;28;20042;-51
2023/01/22 06:32:42;;;;;;;27.23;13.27;;;-0.50;99.90;;;3.23;58.22;98320.50;5033188;28;20045;-50
2023/01/22 06:35:11;;;;;;;25.20;12.57;;;-0.50;99.90;;;3.23;58.33;98315.25;5031480;28;20068;-46
2023/01/22 06:37:39;;;;;;;23.80;12.93;;;-0.50;99.90;;;3.22;58.12;98312.69;5039554;28;20058;-48
2023/01/22 06:40:08;;;;;;;25.10;12.67;;;-0.50;99.90;;;3.25;58.08;98323.03;5031316;28;20053;-46
2023/01/22 06:42:41;;;;;;;21.63;12.03;;;-0.50;99.90;;;3.21;58.29;98324.19;5031836;28;20060;-49
2023/01/22 06:45:10;;;;;;;22.30;11.90;;;-0.50;99.90;;;3.21;58.40;98326.81;5039607;28;20060;-49
2023/01/22 06:47:45;;;;;;;25.55;13.60;;;-0.50;99.90;;;3.21;58.09;98325.03;5039405;28;20053;-46
2023/01/22 06:50:13;;;;;;;25.57;12.53;;;-0.50;99.90;;;3.27;58.03;98324.63;5022654;28;20528;-50
2023/01/22 06:52:41;;;;;;;31.33;15.33;;;-0.40;99.90;;;3.33;58.05;98326.88;5030819;28;20048;-48
2023/01/22 06:55:09;;;;;;;27.10;12.97;;;-0.40;99.90;;;3.39;58.14;98333.50;5031214;28;20060;-48
2023/01/22 06:57:38;;;;;;;24.70;14.23;;;-0.40;99.90;;;3.42;57.62;98333.31;5038966;28;20054;-47
2023/01/22 07:00:07;;;;;;;28.37;12.43;;;-0.30;99.90;;;3.40;57.76;98323.84;5032282;28;20060;-52
2023/01/22 07:02:35;;;;;;;27.27;13.90;;;-0.40;99.90;;;3.39;57.70;98330.88;5032203;28;20050;-49
2023/01/22 07:05:03;;;;;;;27.53;13.57;;;-0.40;99.90;;;3.41;57.64;98329.00;5032403;28;20049;-46
2023/01/22 07:07:31;;;;;;;28.07;13.63;;;-0.40;99.90;;;3.39;57.87;98333.50;5032050;28;20045;-47
2023/01/22 07:10:00;;;;;;;28.27;14.67;;;-0.40;99.90;;;3.39;57.75;98332.69;5030556;28;20038;-48
2023/01/22 07:12:28;;;;;;;27.17;15.40;;;-0.30;99.90;;;3.43;57.85;98340.28;5030795;28;20056;-46
2023/01/22 07:14:56;;;;;;;26.43;13.40;;;-0.30;99.90;;;3.46;57.99;98342.72;5032194;28;20500;-46
2023/01/22 07:17:24;;;;;;;22.50;12.87;;;-0.30;99.90;;;3.49;57.80;98342.53;5038965;28;20054;-51
2023/01/22 07:19:51;;;;;;;27.33;12.77;;;-0.20;99.90;;;3.53;57.67;98348.44;5031670;28;20042;-45
2023/01/22 07:22:19;;;;;;;25.57;12.70;;;-0.20;99.90;;;3.51;57.77;98347.69;5031788;28;20049;-46
2023/01/22 07:24:47;;;;;;;28.07;13.33;;;-0.20;99.90;;;3.56;57.26;98353.47;5031743;28;20415;-47
2023/01/22 07:27:15;;;;;;;22.33;11.93;;;-0.20;99.90;;;3.57;57.65;98352.56;5031969;28;20054;-49
2023/01/22 07:29:43;;;;;;;22.80;12.80;;;-0.10;99.90;;;3.60;57.63;98354.97;5031466;28;20049;-49
2023/01/22 07:32:10;;;;;;;24.63;12.87;;;-0.10;99.90;;;3.60;58.00;98360.22;5031355;28;20413;-48
2023/01/22 07:34:38;;;;;;;24.60;12.27;;;-0.10;99.90;;;3.59;57.88;98369.09;5031718;28;20045;-47
2023/01/22 07:37:06;;;;;;;25.40;13.43;;;-0.10;99.90;;;3.55;57.54;98364.97;5031748;28;20053;-49
2023/01/22 07:39:34;;;;;;;22.40;12.63;;;-0.20;99.90;;;3.54;57.92;98365.91;5031060;28;20045;-46
2023/01/22 07:42:02;;;;;;;27.50;13.13;;;-0.20;99.90;;;3.55;57.72;98363.19;5031448;28;20052;-47
2023/01/22 07:44:30;;;;;;;23.60;13.63;;;-0.20;99.90;;;3.54;57.73;98365.91;5031413;28;20049;-47
2023/01/22 07:46:58;;;;;;;26.80;13.53;;;-0.20;99.90;;;3.55;57.89;98370.25;5031781;28;20048;-47
2023/01/22 07:49:26;;;;;;;25.20;14.63;;;-0.20;99.90;;;3.45;57.93;98375.25;5028566;28;20513;-47
2023/01/22 07:51:53;;;;;;;23.83;13.93;;;-0.30;99.90;;;3.41;58.14;98365.84;5028914;28;20053;-45
2023/01/22 07:54:21;;;;;;;26.17;12.90;;;-0.30;99.90;;;3.31;58.12;98368.22;5029342;28;20107;-50
2023/01/22 07:56:49;;;;;;;25.47;14.07;;;-0.40;99.90;;;3.24;58.25;98372.22;5030088;28;20447;-48
2023/01/22 07:59:17;;;;;;;25.07;13.30;;;-0.40;99.90;;;3.30;58.27;98376.25;5030085;28;20062;-46
2023/01/22 08:01:44;;;;;;;29.17;14.77;;;-0.40;99.90;;;3.37;58.20;98374.88;5029485;28;20072;-47
2023/01/22 08:04:12;;;;;;;26.33;13.67;;;-0.40;99.90;;;3.33;58.34;98376.88;5029700;28;20060;-45
2023/01/22 08:06:40;;;;;;;29.73;15.27;;;-0.40;99.90;;;3.37;58.41;98377.50;5029940;28;20041;-49
2023/01/22 08:09:08;;;;;;;28.37;14.90;;;-0.40;99.90;;;3.43;58.24;98379.78;5029913;28;20041;-51
2023/01/22 08:11:35;;;;;;;29.43;13.30;;;-0.30;99.90;;;3.50;58.42;98382.84;5028807;28;20052;-48
2023/01/22 08:14:03;;;;;;;33.73;13.40;;;-0.20;99.90;;;3.51;57.75;98388.03;5030027;28;20049;-47
2023/01/22 08:16:31;;;;;;;28.10;13.20;;;-0.20;99.90;;;3.53;58.00;98390.56;5029631;28;20329;-48
2023/01/22 08:18:59;;;;;;;29.53;15.17;;;-0.20;99.90;;;3.50;58.29;98391.59;5030363;28;20056;-50
2023/01/22 08:21:27;;;;;;;38.83;17.73;;;-0.20;99.90;;;3.53;58.25;98390.56;5029653;28;20052;-49
2023/01/22 08:23:55;;;;;;;38.40;18.53;;;-0.20;99.90;;;3.59;58.20;98392.78;5029852;28;20057;-48
2023/01/22 08:26:23;;;;;;;37.70;18.37;;;-0.10;99.90;;;3.66;58.41;98398.50;5030607;28;20078;-50
2023/01/22 08:28:50;;;;;;;40.40;20.93;;;0.00;99.90;;;3.63;58.18;98394.28;5029516;28;20629;-51
2023/01/22 08:31:18;;;;;;;26.33;13.83;;;-0.10;99.90;;;3.66;58.23;98403.75;5028464;28;20052;-50
2023/01/22 08:33:58;;;;;;;26.17;14.87;;;-0.10;99.90;;;3.69;58.16;98406.22;5029975;28;20046;-46
2023/01/22 08:36:26;;;;;;;29.03;15.80;;;0.00;99.90;;;3.75;58.08;98405.81;5029687;28;20056;-52
2023/01/22 08:38:54;;;;;;;26.47;13.43;;;0.00;99.90;;;3.77;57.91;98414.44;5030008;28;20413;-49
2023/01/22 08:41:23;;;;;;;28.27;13.27;;;0.00;99.90;;;3.80;58.36;98416.91;5029179;28;20420;-46
2023/01/22 08:43:52;;;;;;;26.00;13.23;;;0.10;99.90;;;3.87;57.87;98415.53;5029882;28;20038;-49
2023/01/22 08:46:19;;;;;;;24.10;11.37;;;0.20;99.90;;;3.95;57.87;98420.28;5028881;28;20053;-48
2023/01/22 08:48:47;;;;;;;23.57;11.83;;;0.20;99.90;;;4.00;57.73;98425.28;5029981;28;20041;-49
2023/01/22 08:51:15;;;;;;;22.67;11.70;;;0.30;99.90;;;4.00;57.68;98422.66;5029318;28;20046;-48
2023/01/22 08:53:43;;;;;;;23.70;11.10;;;0.30;99.90;;;4.00;57.58;98415.59;5028445;28;20048;-49
2023/01/22 08:56:11;;;;;;;24.33;13.03;;;0.30;99.90;;;4.02;58.01;98416.31;5029808;28;20508;-47
2023/01/22 08:58:39;;;;;;;21.87;11.00;;;0.30;99.90;;;4.06;57.76;98424.88;5028571;28;20045;-50
2023/01/22 09:01:06;;;;;;;23.37;12.53;;;0.30;99.90;;;4.06;57.82;98430.16;5029531;28;20056;-51
2023/01/22 09:03:34;;;;;;;24.10;12.47;;;0.30;99.90;;;4.03;57.36;98420.66;5028838;28;20053;-49
2023/01/22 09:06:02;;;;;;;17.53;10.67;;;0.30;99.90;;;4.02;57.59;98420.75;5033640;28;20049;-49
2023/01/22 09:08:30;;;;;;;22.80;10.23;;;0.30;99.90;;;4.04;57.59;98422.34;5033154;28;20045;-47
2023/01/22 09:10:58;;;;;;;22.47;11.53;;;0.30;99.90;;;4.08;57.45;98426.44;5033273;28;20041;-47
2023/01/22 09:13:26;;;;;;;22.77;12.03;;;0.40;99.90;;;4.13;57.50;98428.81;5033762;28;20045;-49
2023/01/22 09:15:58;;;;;;;18.83;11.13;;;0.40;99.90;;;4.17;57.83;98434.69;5033590;28;20037;-47
2023/01/22 09:18:26;;;;;;;19.47;11.03;;;0.50;99.90;;;4.19;57.42;98435.44;5033527;28;20041;-51
2023/01/22 09:20:53;;;;;;;20.40;11.63;;;0.50;99.90;;;4.17;57.70;98438.19;5030754;28;20042;-48
2023/01/22 09:23:21;;;;;;;21.83;11.83;;;0.40;99.90;;;4.16;57.29;98439.13;5029925;28;20512;-47
2023/01/22 09:25:49;;;;;;;21.90;11.17;;;0.40;99.90;;;4.13;57.59;98437.56;5032687;28;20044;-48
2023/01/22 09:28:17;;;;;;;20.00;11.60;;;0.40;99.90;;;4.15;57.22;98432.19;5033796;28;20045;-52
2023/01/22 09:30:45;;;;;;;22.13;11.13;;;0.40;99.90;;;4.16;57.30;98439.13;5033272;28;20042;-48
2023/01/22 09:33:13;;;;;;;17.40;11.03;;;0.40;99.90;;;4.22;57.91;98440.50;5034114;28;20037;-47
2023/01/22 09:35:40;;;;;;;27.07;12.70;;;0.50;99.90;;;4.26;57.40;98437.56;5033805;28;20034;-47
2023/01/22 09:38:14;;;;;;;22.30;11.47;;;0.60;99.90;;;4.22;57.88;98441.34;5041714;28;20053;-49
2023/01/22 09:40:51;;;;;;;25.52;11.00;;;0.60;99.90;;;4.24;57.84;98442.09;5033885;28;20041;-50
2023/01/22 09:43:53;;;;;;;24.97;12.27;;;0.60;99.90;;;4.23;57.98;98442.22;5033037;28;20419;-49
2023/01/22 09:46:32;;;;;;;21.03;11.67;;;0.60;99.90;;;4.29;57.17;98452.34;5028583;28;20053;-47
2023/01/22 09:49:07;;;;;;;24.53;12.50;;;0.60;99.90;;;4.26;57.57;98444.63;5032748;28;20042;-46
2023/01/22 09:51:35;;;;;;;24.13;12.83;;;0.50;99.90;;;4.25;57.33;98456.97;5017382;28;20394;-50
2023/01/22 09:54:07;;;;;;;23.23;11.73;;;0.50;99.90;;;4.27;57.42;98462.16;5024931;28;20045;-47
2023/01/22 09:56:42;;;;;;;24.77;12.37;;;0.60;99.90;;;4.32;57.16;98452.13;5032502;28;20040;-51
2023/01/22 09:59:25;;;;;;;24.80;11.83;;;0.60;99.90;;;4.32;57.35;98460.03;5025697;28;20046;-50
2023/01/22 10:02:10;;;;;;;21.63;13.20;;;0.70;99.90;;;4.36;57.77;98455.41;5033387;28;20056;-52
2023/01/22 10:04:45;;;;;;;19.33;10.77;;;0.70;99.90;;;4.31;57.38;98453.94;5031018;28;20041;-51
2023/01/22 10:07:31;;;;;;;27.00;13.67;;;0.60;99.90;;;4.29;57.80;98454.97;5032584;28;20056;-46
2023/01/22 10:10:21;;;;;;;34.03;19.23;;;0.60;99.90;;;4.32;57.56;98458.28;5016726;28;20045;-47
2023/01/22 10:13:11;;;;;;;23.33;13.70;;;0.70;99.90;;;4.40;57.84;98451.63;5032458;28;20053;-48
2023/01/22 10:15:38;;;;;;;142.47;55.13;;;0.70;99.90;;;4.50;56.95;98460.63;5033333;28;20042;-46
2023/01/22 10:18:44;;;;;;;66.63;30.80;;;0.80;99.90;;;4.46;57.16;98467.88;5033398;28;20042;-47
2023/01/22 10:21:38;;;;;;;44.77;21.43;;;0.80;99.90;;;4.50;57.47;98465.91;5026197;28;20041;-50
2023/01/22 10:24:10;;;;;;;55.30;23.90;;;0.90;99.90;;;4.54;57.50;98464.75;5025497;28;20042;-49
2023/01/22 10:26:54;;;;;;;32.47;16.40;;;0.90;99.90;;;4.55;57.37;98469.03;5033309;28;20529;-49
2023/01/22 10:29:33;;;;;;;28.03;14.10;;;0.90;99.90;;;4.59;57.00;98461.78;5031101;28;20037;-46
2023/01/22 10:32:19;;;;;;;29.03;15.17;;;0.90;99.90;;;4.53;57.82;98469.16;5032946;28;20519;-48
2023/01/22 10:35:15;;;;;;;24.93;13.63;;;0.90;99.90;;;4.55;57.58;98466.41;5031814;28;20049;-50
2023/01/22 10:37:52;;;;;;;21.80;13.47;;;0.90;99.90;;;4.62;57.38;98464.22;5031811;28;20048;-49
2023/01/22 10:40:32;;;;;;;31.00;17.10;;;1.00;99.90;;;4.66;57.28;98469.16;5032617;28;20041;-52
2023/01/22 10:43:07;;;;;;;26.00;15.50;;;1.00;99.90;;;4.63;57.24;98466.72;5031440;28;20060;-48